sensor_id;sensor_type;location;lat;lon;timestamp;P1;durP1;ratioP1;P2;durP2;ratioP2
11267;SDS011;49397;47.474;9.416;2023-03-12T00:00:39;3.17;;;2.50;;
11267;SDS011;49397;47.474;9.416;2023-03-12T00:03:04;2.60;;;2.40;;
11267;SDS011;49397;47.474;9.416;2023-03-12T00:05:30;2.43;;;2.23;;
11267;SDS011;49397;47.474;9.416;2023-03-12T00:07:55;2.20;;;2.10;;
11267;SDS011;49397;47.474;9.416;2023-03-12T00:10:24;2.53;;;2.43;;
11267;SDS011;49397;47.474;9.416;2023-03-12T00:12:49;2.30;;;2.20;;
11267;SDS011;49397;47.474;9.416;2023-03-12T00:15:15;2.27;;;2.17;;
11267;SDS011;49397;47.474;9.416;2023-03-12T00:17:40;2.10;;;2.00;;
11267;SDS011;49397;47.474;9.416;2023-03-12T00:20:05;2.37;;;2.17;;
11267;SDS011;49397;47.474;9.416;2023-03-12T00:22:31;2.53;;;2.33;;
11267;SDS011;49397;47.474;9.416;2023-03-12T00:24:56;2.37;;;2.27;;
11267;SDS011;49397;47.474;9.416;2023-03-12T00:27:22;2.43;;;2.00;;
11267;SDS011;49397;47.474;9.416;2023-03-12T00:29:48;2.37;;;2.27;;
11267;SDS011;49397;47.474;9.416;2023-03-12T00:32:14;2.20;;;2.10;;
11267;SDS011;49397;47.474;9.416;2023-03-12T00:34:39;2.33;;;2.13;;
11267;SDS011;49397;47.474;9.416;2023-03-12T00:37:05;2.80;;;2.33;;
11267;SDS011;49397;47.474;9.416;2023-03-12T00:39:32;2.30;;;2.20;;
11267;SDS011;49397;47.474;9.416;2023-03-12T00:41:57;2.17;;;2.07;;
11267;SDS011;49397;47.474;9.416;2023-03-12T00:44:22;2.87;;;2.50;;
11267;SDS011;49397;47.474;9.416;2023-03-12T00:46:48;2.10;;;1.93;;
11267;SDS011;49397;47.474;9.416;2023-03-12T00:49:13;2.87;;;2.57;;
11267;SDS011;49397;47.474;9.416;2023-03-12T00:51:38;4.93;;;2.33;;
11267;SDS011;49397;47.474;9.416;2023-03-12T00:54:04;2.10;;;2.00;;
11267;SDS011;49397;47.474;9.416;2023-03-12T00:56:29;2.50;;;2.23;;
11267;SDS011;49397;47.474;9.416;2023-03-12T00:58:54;2.27;;;2.07;;
11267;SDS011;49397;47.474;9.416;2023-03-12T01:01:20;2.40;;;2.20;;
11267;SDS011;49397;47.474;9.416;2023-03-12T01:03:45;3.80;;;2.13;;
11267;SDS011;49397;47.474;9.416;2023-03-12T01:06:11;2.40;;;2.20;;
11267;SDS011;49397;47.474;9.416;2023-03-12T01:08:36;2.13;;;1.97;;
11267;SDS011;49397;47.474;9.416;2023-03-12T01:11:01;2.30;;;2.10;;
11267;SDS011;49397;47.474;9.416;2023-03-12T01:13:27;2.20;;;2.00;;
11267;SDS011;49397;47.474;9.416;2023-03-12T01:15:52;2.07;;;1.87;;
11267;SDS011;49397;47.474;9.416;2023-03-12T01:18:18;2.73;;;2.27;;
11267;SDS011;49397;47.474;9.416;2023-03-12T01:20:43;2.73;;;2.10;;
11267;SDS011;49397;47.474;9.416;2023-03-12T01:23:08;3.50;;;2.50;;
11267;SDS011;49397;47.474;9.416;2023-03-12T01:25:34;4.10;;;2.37;;
11267;SDS011;49397;47.474;9.416;2023-03-12T01:28:00;3.17;;;2.10;;
11267;SDS011;49397;47.474;9.416;2023-03-12T01:30:26;2.30;;;2.10;;
11267;SDS011;49397;47.474;9.416;2023-03-12T01:32:52;3.13;;;2.00;;
11267;SDS011;49397;47.474;9.416;2023-03-12T01:35:17;4.90;;;1.97;;
11267;SDS011;49397;47.474;9.416;2023-03-12T01:37:42;2.00;;;1.90;;
11267;SDS011;49397;47.474;9.416;2023-03-12T01:40:11;2.87;;;1.93;;
11267;SDS011;49397;47.474;9.416;2023-03-12T01:42:38;1.83;;;1.73;;
11267;SDS011;49397;47.474;9.416;2023-03-12T01:45:03;2.20;;;2.10;;
11267;SDS011;49397;47.474;9.416;2023-03-12T01:47:29;2.27;;;2.17;;
11267;SDS011;49397;47.474;9.416;2023-03-12T01:49:58;2.27;;;2.17;;
11267;SDS011;49397;47.474;9.416;2023-03-12T01:52:26;2.10;;;2.00;;
11267;SDS011;49397;47.474;9.416;2023-03-12T01:54:53;2.10;;;2.00;;
11267;SDS011;49397;47.474;9.416;2023-03-12T01:57:30;2.70;;;2.43;;
11267;SDS011;49397;47.474;9.416;2023-03-12T02:00:04;3.40;;;2.07;;
11267;SDS011;49397;47.474;9.416;2023-03-12T02:02:31;2.33;;;2.20;;
11267;SDS011;49397;47.474;9.416;2023-03-12T02:07:34;2.63;;;2.47;;
11267;SDS011;49397;47.474;9.416;2023-03-12T02:10:00;2.17;;;2.07;;
11267;SDS011;49397;47.474;9.416;2023-03-12T02:12:26;2.93;;;2.70;;
11267;SDS011;49397;47.474;9.416;2023-03-12T02:14:51;2.83;;;2.63;;
11267;SDS011;49397;47.474;9.416;2023-03-12T02:17:16;2.67;;;2.27;;
11267;SDS011;49397;47.474;9.416;2023-03-12T02:22:07;2.57;;;2.37;;
11267;SDS011;49397;47.474;9.416;2023-03-12T02:26:58;2.37;;;2.27;;
11267;SDS011;49397;47.474;9.416;2023-03-12T02:29:25;2.23;;;2.10;;
11267;SDS011;49397;47.474;9.416;2023-03-12T02:31:52;1.93;;;1.93;;
11267;SDS011;49397;47.474;9.416;2023-03-12T02:34:19;2.80;;;1.97;;
11267;SDS011;49397;47.474;9.416;2023-03-12T02:36:46;2.50;;;2.40;;
11267;SDS011;49397;47.474;9.416;2023-03-12T02:39:12;2.03;;;2.03;;
11267;SDS011;49397;47.474;9.416;2023-03-12T02:41:43;2.10;;;2.00;;
11267;SDS011;49397;47.474;9.416;2023-03-12T02:44:43;1.90;;;1.80;;
11267;SDS011;49397;47.474;9.416;2023-03-12T02:47:02;1.90;;;1.80;;
11267;SDS011;49397;47.474;9.416;2023-03-12T02:49:29;2.13;;;2.00;;
11267;SDS011;49397;47.474;9.416;2023-03-12T02:51:55;2.23;;;2.13;;
11267;SDS011;49397;47.474;9.416;2023-03-12T02:54:20;2.23;;;2.13;;
11267;SDS011;49397;47.474;9.416;2023-03-12T02:56:46;2.17;;;1.90;;
11267;SDS011;49397;47.474;9.416;2023-03-12T02:59:12;1.93;;;1.83;;
11267;SDS011;49397;47.474;9.416;2023-03-12T03:01:38;2.03;;;1.93;;
11267;SDS011;49397;47.474;9.416;2023-03-12T03:04:05;1.70;;;1.70;;
11267;SDS011;49397;47.474;9.416;2023-03-12T03:06:31;2.00;;;1.90;;
11267;SDS011;49397;47.474;9.416;2023-03-12T03:08:56;2.10;;;2.00;;
11267;SDS011;49397;47.474;9.416;2023-03-12T03:11:22;3.43;;;2.27;;
11267;SDS011;49397;47.474;9.416;2023-03-12T03:13:52;2.47;;;2.27;;
11267;SDS011;49397;47.474;9.416;2023-03-12T03:16:18;2.40;;;2.30;;
11267;SDS011;49397;47.474;9.416;2023-03-12T03:18:43;2.20;;;2.10;;
11267;SDS011;49397;47.474;9.416;2023-03-12T03:21:09;2.27;;;2.17;;
11267;SDS011;49397;47.474;9.416;2023-03-12T03:23:34;2.57;;;2.13;;
11267;SDS011;49397;47.474;9.416;2023-03-12T03:26:00;2.10;;;2.00;;
11267;SDS011;49397;47.474;9.416;2023-03-12T03:28:26;2.93;;;2.37;;
11267;SDS011;49397;47.474;9.416;2023-03-12T03:30:52;2.67;;;2.47;;
11267;SDS011;49397;47.474;9.416;2023-03-12T03:33:17;2.73;;;2.50;;
11267;SDS011;49397;47.474;9.416;2023-03-12T03:35:43;2.20;;;2.10;;
11267;SDS011;49397;47.474;9.416;2023-03-12T03:38:08;2.10;;;2.00;;
11267;SDS011;49397;47.474;9.416;2023-03-12T03:40:34;2.20;;;2.10;;
11267;SDS011;49397;47.474;9.416;2023-03-12T03:42:59;1.77;;;1.67;;
11267;SDS011;49397;47.474;9.416;2023-03-12T03:45:24;2.23;;;2.13;;
11267;SDS011;49397;47.474;9.416;2023-03-12T03:47:50;2.03;;;1.93;;
11267;SDS011;49397;47.474;9.416;2023-03-12T03:50:15;2.03;;;1.93;;
11267;SDS011;49397;47.474;9.416;2023-03-12T03:52:41;2.10;;;2.00;;
11267;SDS011;49397;47.474;9.416;2023-03-12T03:55:06;2.30;;;2.20;;
11267;SDS011;49397;47.474;9.416;2023-03-12T03:57:31;2.30;;;2.20;;
11267;SDS011;49397;47.474;9.416;2023-03-12T03:59:57;1.80;;;1.73;;
11267;SDS011;49397;47.474;9.416;2023-03-12T04:02:23;2.30;;;2.20;;
11267;SDS011;49397;47.474;9.416;2023-03-12T04:04:48;4.40;;;2.50;;
11267;SDS011;49397;47.474;9.416;2023-03-12T04:07:14;2.60;;;2.40;;
11267;SDS011;49397;47.474;9.416;2023-03-12T04:09:40;2.13;;;2.03;;
11267;SDS011;49397;47.474;9.416;2023-03-12T04:12:05;3.40;;;2.43;;
11267;SDS011;49397;47.474;9.416;2023-03-12T04:14:31;2.67;;;2.47;;
11267;SDS011;49397;47.474;9.416;2023-03-12T04:16:56;2.60;;;2.40;;
11267;SDS011;49397;47.474;9.416;2023-03-12T04:19:22;2.07;;;1.97;;
11267;SDS011;49397;47.474;9.416;2023-03-12T04:21:47;2.20;;;2.10;;
11267;SDS011;49397;47.474;9.416;2023-03-12T04:24:13;2.00;;;1.90;;
11267;SDS011;49397;47.474;9.416;2023-03-12T04:26:39;2.07;;;1.97;;
11267;SDS011;49397;47.474;9.416;2023-03-12T04:29:05;7.60;;;2.47;;
11267;SDS011;49397;47.474;9.416;2023-03-12T04:31:30;2.40;;;2.20;;
11267;SDS011;49397;47.474;9.416;2023-03-12T04:33:56;2.60;;;2.43;;
11267;SDS011;49397;47.474;9.416;2023-03-12T04:36:21;2.00;;;1.90;;
11267;SDS011;49397;47.474;9.416;2023-03-12T04:38:46;2.23;;;2.03;;
11267;SDS011;49397;47.474;9.416;2023-03-12T04:41:13;2.17;;;2.00;;
11267;SDS011;49397;47.474;9.416;2023-03-12T04:43:39;2.73;;;1.93;;
11267;SDS011;49397;47.474;9.416;2023-03-12T04:46:04;2.23;;;2.03;;
11267;SDS011;49397;47.474;9.416;2023-03-12T04:48:30;2.17;;;2.07;;
11267;SDS011;49397;47.474;9.416;2023-03-12T04:50:55;2.23;;;2.13;;
11267;SDS011;49397;47.474;9.416;2023-03-12T04:53:21;1.93;;;1.83;;
11267;SDS011;49397;47.474;9.416;2023-03-12T04:55:47;1.80;;;1.70;;
11267;SDS011;49397;47.474;9.416;2023-03-12T04:58:12;1.50;;;1.50;;
11267;SDS011;49397;47.474;9.416;2023-03-12T05:00:39;2.10;;;2.00;;
11267;SDS011;49397;47.474;9.416;2023-03-12T05:03:04;2.43;;;1.83;;
11267;SDS011;49397;47.474;9.416;2023-03-12T05:05:29;1.90;;;1.80;;
11267;SDS011;49397;47.474;9.416;2023-03-12T05:07:55;1.90;;;1.80;;
11267;SDS011;49397;47.474;9.416;2023-03-12T05:10:20;2.33;;;2.20;;
11267;SDS011;49397;47.474;9.416;2023-03-12T05:12:46;2.30;;;2.10;;
11267;SDS011;49397;47.474;9.416;2023-03-12T05:15:11;2.03;;;1.93;;
11267;SDS011;49397;47.474;9.416;2023-03-12T05:17:36;2.43;;;2.23;;
11267;SDS011;49397;47.474;9.416;2023-03-12T05:20:02;2.17;;;2.07;;
11267;SDS011;49397;47.474;9.416;2023-03-12T05:22:30;2.37;;;2.23;;
11267;SDS011;49397;47.474;9.416;2023-03-12T05:24:55;2.10;;;2.00;;
11267;SDS011;49397;47.474;9.416;2023-03-12T05:27:20;2.20;;;2.10;;
11267;SDS011;49397;47.474;9.416;2023-03-12T05:29:46;2.00;;;1.90;;
11267;SDS011;49397;47.474;9.416;2023-03-12T05:32:11;1.90;;;1.80;;
11267;SDS011;49397;47.474;9.416;2023-03-12T05:34:36;2.07;;;1.97;;
11267;SDS011;49397;47.474;9.416;2023-03-12T05:37:02;2.20;;;2.10;;
11267;SDS011;49397;47.474;9.416;2023-03-12T05:39:27;2.20;;;2.10;;
11267;SDS011;49397;47.474;9.416;2023-03-12T05:41:52;2.33;;;2.23;;
11267;SDS011;49397;47.474;9.416;2023-03-12T05:44:24;2.50;;;2.30;;
11267;SDS011;49397;47.474;9.416;2023-03-12T05:46:49;3.10;;;2.13;;
11267;SDS011;49397;47.474;9.416;2023-03-12T05:49:15;2.40;;;2.30;;
11267;SDS011;49397;47.474;9.416;2023-03-12T05:51:40;2.03;;;1.93;;
11267;SDS011;49397;47.474;9.416;2023-03-12T05:54:07;3.57;;;2.57;;
11267;SDS011;49397;47.474;9.416;2023-03-12T05:56:34;2.47;;;2.37;;
11267;SDS011;49397;47.474;9.416;2023-03-12T05:58:59;2.50;;;2.30;;
11267;SDS011;49397;47.474;9.416;2023-03-12T06:01:26;3.47;;;2.10;;
11267;SDS011;49397;47.474;9.416;2023-03-12T06:03:51;3.60;;;2.30;;
11267;SDS011;49397;47.474;9.416;2023-03-12T06:06:17;3.10;;;2.70;;
11267;SDS011;49397;47.474;9.416;2023-03-12T06:08:43;2.80;;;2.60;;
11267;SDS011;49397;47.474;9.416;2023-03-12T06:11:09;3.03;;;2.33;;
11267;SDS011;49397;47.474;9.416;2023-03-12T06:13:34;2.17;;;2.07;;
11267;SDS011;49397;47.474;9.416;2023-03-12T06:16:01;3.27;;;2.37;;
11267;SDS011;49397;47.474;9.416;2023-03-12T06:18:27;2.43;;;2.33;;
11267;SDS011;49397;47.474;9.416;2023-03-12T06:20:52;2.83;;;2.63;;
11267;SDS011;49397;47.474;9.416;2023-03-12T06:23:17;2.63;;;2.27;;
11267;SDS011;49397;47.474;9.416;2023-03-12T06:25:43;2.23;;;2.13;;
11267;SDS011;49397;47.474;9.416;2023-03-12T06:28:09;3.17;;;2.57;;
11267;SDS011;49397;47.474;9.416;2023-03-12T06:30:34;2.27;;;2.17;;
11267;SDS011;49397;47.474;9.416;2023-03-12T06:32:59;2.33;;;2.23;;
11267;SDS011;49397;47.474;9.416;2023-03-12T06:35:25;2.50;;;2.40;;
11267;SDS011;49397;47.474;9.416;2023-03-12T06:37:50;5.33;;;2.27;;
11267;SDS011;49397;47.474;9.416;2023-03-12T06:40:16;2.50;;;2.30;;
11267;SDS011;49397;47.474;9.416;2023-03-12T06:42:41;2.60;;;2.40;;
11267;SDS011;49397;47.474;9.416;2023-03-12T06:45:07;2.70;;;2.50;;
11267;SDS011;49397;47.474;9.416;2023-03-12T06:47:32;2.77;;;2.40;;
11267;SDS011;49397;47.474;9.416;2023-03-12T06:49:58;3.23;;;2.37;;
11267;SDS011;49397;47.474;9.416;2023-03-12T06:52:23;3.47;;;3.17;;
11267;SDS011;49397;47.474;9.416;2023-03-12T06:54:48;5.67;;;4.17;;
11267;SDS011;49397;47.474;9.416;2023-03-12T06:57:14;6.23;;;4.23;;
11267;SDS011;49397;47.474;9.416;2023-03-12T06:59:40;6.07;;;4.70;;
11267;SDS011;49397;47.474;9.416;2023-03-12T07:02:08;6.13;;;4.03;;
11267;SDS011;49397;47.474;9.416;2023-03-12T07:04:33;6.20;;;4.53;;
11267;SDS011;49397;47.474;9.416;2023-03-12T07:06:59;3.93;;;3.53;;
11267;SDS011;49397;47.474;9.416;2023-03-12T07:09:24;4.37;;;3.73;;
11267;SDS011;49397;47.474;9.416;2023-03-12T07:11:49;3.23;;;3.03;;
11267;SDS011;49397;47.474;9.416;2023-03-12T07:14:15;3.13;;;2.87;;
11267;SDS011;49397;47.474;9.416;2023-03-12T07:16:40;12.40;;;2.80;;
11267;SDS011;49397;47.474;9.416;2023-03-12T07:19:05;4.37;;;3.50;;
11267;SDS011;49397;47.474;9.416;2023-03-12T07:21:31;3.40;;;3.10;;
11267;SDS011;49397;47.474;9.416;2023-03-12T07:23:56;5.47;;;3.60;;
11267;SDS011;49397;47.474;9.416;2023-03-12T07:26:22;3.90;;;3.50;;
11267;SDS011;49397;47.474;9.416;2023-03-12T07:28:47;4.63;;;3.97;;
11267;SDS011;49397;47.474;9.416;2023-03-12T07:31:13;3.53;;;3.23;;
11267;SDS011;49397;47.474;9.416;2023-03-12T07:33:38;4.10;;;3.53;;
11267;SDS011;49397;47.474;9.416;2023-03-12T07:36:03;3.97;;;3.40;;
11267;SDS011;49397;47.474;9.416;2023-03-12T07:38:29;4.03;;;3.50;;
11267;SDS011;49397;47.474;9.416;2023-03-12T07:40:55;4.23;;;3.83;;
11267;SDS011;49397;47.474;9.416;2023-03-12T07:43:21;6.20;;;4.67;;
11267;SDS011;49397;47.474;9.416;2023-03-12T07:45:47;4.83;;;3.90;;
11267;SDS011;49397;47.474;9.416;2023-03-12T07:48:12;5.30;;;4.40;;
11267;SDS011;49397;47.474;9.416;2023-03-12T07:50:37;5.43;;;4.43;;
11267;SDS011;49397;47.474;9.416;2023-03-12T07:53:03;4.83;;;3.60;;
11267;SDS011;49397;47.474;9.416;2023-03-12T07:55:29;5.47;;;4.40;;
11267;SDS011;49397;47.474;9.416;2023-03-12T07:57:55;3.80;;;3.50;;
11267;SDS011;49397;47.474;9.416;2023-03-12T08:00:22;5.17;;;4.07;;
11267;SDS011;49397;47.474;9.416;2023-03-12T08:02:48;5.90;;;4.30;;
11267;SDS011;49397;47.474;9.416;2023-03-12T08:05:13;6.57;;;3.93;;
11267;SDS011;49397;47.474;9.416;2023-03-12T08:07:39;4.07;;;3.70;;
11267;SDS011;49397;47.474;9.416;2023-03-12T08:10:05;5.27;;;4.33;;
11267;SDS011;49397;47.474;9.416;2023-03-12T08:12:31;6.17;;;4.77;;
11267;SDS011;49397;47.474;9.416;2023-03-12T08:14:57;3.10;;;2.90;;
11267;SDS011;49397;47.474;9.416;2023-03-12T08:17:22;3.43;;;3.10;;
11267;SDS011;49397;47.474;9.416;2023-03-12T08:19:48;3.37;;;3.07;;
11267;SDS011;49397;47.474;9.416;2023-03-12T08:22:13;5.37;;;2.90;;
11267;SDS011;49397;47.474;9.416;2023-03-12T08:24:38;3.73;;;2.87;;
11267;SDS011;49397;47.474;9.416;2023-03-12T08:27:04;3.70;;;3.20;;
11267;SDS011;49397;47.474;9.416;2023-03-12T08:29:29;3.27;;;2.97;;
11267;SDS011;49397;47.474;9.416;2023-03-12T08:31:55;5.10;;;4.00;;
11267;SDS011;49397;47.474;9.416;2023-03-12T08:34:20;4.97;;;4.47;;
11267;SDS011;49397;47.474;9.416;2023-03-12T08:36:46;5.87;;;4.03;;
11267;SDS011;49397;47.474;9.416;2023-03-12T08:39:11;5.00;;;4.50;;
11267;SDS011;49397;47.474;9.416;2023-03-12T08:41:36;6.93;;;4.67;;
11267;SDS011;49397;47.474;9.416;2023-03-12T08:44:02;8.13;;;4.93;;
11267;SDS011;49397;47.474;9.416;2023-03-12T08:46:27;5.27;;;4.30;;
11267;SDS011;49397;47.474;9.416;2023-03-12T08:48:53;4.33;;;3.93;;
11267;SDS011;49397;47.474;9.416;2023-03-12T08:51:19;5.13;;;4.73;;
11267;SDS011;49397;47.474;9.416;2023-03-12T08:53:44;4.30;;;3.93;;
11267;SDS011;49397;47.474;9.416;2023-03-12T08:56:09;4.17;;;3.77;;
11267;SDS011;49397;47.474;9.416;2023-03-12T08:58:35;4.60;;;4.07;;
11267;SDS011;49397;47.474;9.416;2023-03-12T09:01:00;7.23;;;4.47;;
11267;SDS011;49397;47.474;9.416;2023-03-12T09:03:26;5.47;;;4.60;;
11267;SDS011;49397;47.474;9.416;2023-03-12T09:06:00;5.53;;;4.20;;
11267;SDS011;49397;47.474;9.416;2023-03-12T09:08:26;2.73;;;2.50;;
11267;SDS011;49397;47.474;9.416;2023-03-12T09:10:51;2.70;;;2.50;;
11267;SDS011;49397;47.474;9.416;2023-03-12T09:13:17;2.10;;;2.00;;
11267;SDS011;49397;47.474;9.416;2023-03-12T09:15:42;2.10;;;1.97;;
11267;SDS011;49397;47.474;9.416;2023-03-12T09:18:07;1.47;;;1.47;;
11267;SDS011;49397;47.474;9.416;2023-03-12T09:20:33;1.70;;;1.60;;
11267;SDS011;49397;47.474;9.416;2023-03-12T09:22:58;1.80;;;1.70;;
11267;SDS011;49397;47.474;9.416;2023-03-12T09:25:23;1.60;;;1.50;;
11267;SDS011;49397;47.474;9.416;2023-03-12T09:27:49;1.60;;;1.60;;
11267;SDS011;49397;47.474;9.416;2023-03-12T09:30:15;1.63;;;1.57;;
11267;SDS011;49397;47.474;9.416;2023-03-12T09:32:41;1.40;;;1.40;;
11267;SDS011;49397;47.474;9.416;2023-03-12T09:35:09;1.47;;;1.37;;
11267;SDS011;49397;47.474;9.416;2023-03-12T09:37:35;1.70;;;1.60;;
11267;SDS011;49397;47.474;9.416;2023-03-12T09:40:00;1.80;;;1.60;;
11267;SDS011;49397;47.474;9.416;2023-03-12T09:45:13;1.30;;;1.30;;
11267;SDS011;49397;47.474;9.416;2023-03-12T09:47:42;1.70;;;1.60;;
11267;SDS011;49397;47.474;9.416;2023-03-12T09:52:43;1.43;;;1.43;;
11267;SDS011;49397;47.474;9.416;2023-03-12T09:55:13;1.70;;;1.60;;
11267;SDS011;49397;47.474;9.416;2023-03-12T09:57:39;1.30;;;1.30;;
11267;SDS011;49397;47.474;9.416;2023-03-12T10:00:06;1.67;;;1.60;;
11267;SDS011;49397;47.474;9.416;2023-03-12T10:05:16;1.70;;;1.60;;
11267;SDS011;49397;47.474;9.416;2023-03-12T10:07:46;1.40;;;1.40;;
11267;SDS011;49397;47.474;9.416;2023-03-12T10:18:01;1.63;;;1.60;;
11267;SDS011;49397;47.474;9.416;2023-03-12T10:28:17;1.60;;;1.60;;
11267;SDS011;49397;47.474;9.416;2023-03-12T10:30:45;2.20;;;1.60;;
11267;SDS011;49397;47.474;9.416;2023-03-12T10:33:12;1.80;;;1.70;;
11267;SDS011;49397;47.474;9.416;2023-03-12T10:35:40;1.77;;;1.77;;
11267;SDS011;49397;47.474;9.416;2023-03-12T10:38:08;10.20;;;6.00;;
11267;SDS011;49397;47.474;9.416;2023-03-12T10:40:35;2.47;;;2.27;;
11267;SDS011;49397;47.474;9.416;2023-03-12T10:43:02;4.63;;;3.00;;
11267;SDS011;49397;47.474;9.416;2023-03-12T10:48:06;1.60;;;1.60;;
11267;SDS011;49397;47.474;9.416;2023-03-12T10:50:36;1.53;;;1.47;;
11267;SDS011;49397;47.474;9.416;2023-03-12T10:58:24;1.60;;;1.60;;
11267;SDS011;49397;47.474;9.416;2023-03-12T11:00:53;1.97;;;1.87;;
11267;SDS011;49397;47.474;9.416;2023-03-12T11:03:20;1.60;;;1.53;;
11267;SDS011;49397;47.474;9.416;2023-03-12T11:05:47;1.50;;;1.50;;
11267;SDS011;49397;47.474;9.416;2023-03-12T11:08:20;1.50;;;1.50;;
11267;SDS011;49397;47.474;9.416;2023-03-12T11:10:48;1.87;;;1.77;;
11267;SDS011;49397;47.474;9.416;2023-03-12T11:13:23;1.77;;;1.67;;
11267;SDS011;49397;47.474;9.416;2023-03-12T11:15:49;1.50;;;1.50;;
11267;SDS011;49397;47.474;9.416;2023-03-12T11:18:24;1.40;;;1.40;;
11267;SDS011;49397;47.474;9.416;2023-03-12T11:20:50;2.03;;;1.53;;
11267;SDS011;49397;47.474;9.416;2023-03-12T11:23:22;1.80;;;1.70;;
11267;SDS011;49397;47.474;9.416;2023-03-12T11:25:51;1.50;;;1.50;;
11267;SDS011;49397;47.474;9.416;2023-03-12T11:28:20;1.70;;;1.70;;
11267;SDS011;49397;47.474;9.416;2023-03-12T11:30:46;1.60;;;1.37;;
11267;SDS011;49397;47.474;9.416;2023-03-12T11:33:13;1.77;;;1.67;;
11267;SDS011;49397;47.474;9.416;2023-03-12T11:38:17;1.63;;;1.53;;
11267;SDS011;49397;47.474;9.416;2023-03-12T11:43:30;1.60;;;1.60;;
11267;SDS011;49397;47.474;9.416;2023-03-12T11:58:37;1.70;;;1.70;;
11267;SDS011;49397;47.474;9.416;2023-03-12T12:01:13;1.87;;;1.77;;
11267;SDS011;49397;47.474;9.416;2023-03-12T12:03:48;1.60;;;1.50;;
11267;SDS011;49397;47.474;9.416;2023-03-12T12:08:56;1.87;;;1.77;;
11267;SDS011;49397;47.474;9.416;2023-03-12T12:11:28;1.70;;;1.60;;
11267;SDS011;49397;47.474;9.416;2023-03-12T12:14:01;1.77;;;1.70;;
11267;SDS011;49397;47.474;9.416;2023-03-12T12:16:36;1.70;;;1.70;;
11267;SDS011;49397;47.474;9.416;2023-03-12T12:19:09;1.30;;;1.30;;
11267;SDS011;49397;47.474;9.416;2023-03-12T12:32:15;1.40;;;1.40;;
11267;SDS011;49397;47.474;9.416;2023-03-12T12:39:52;1.40;;;1.30;;
11267;SDS011;49397;47.474;9.416;2023-03-12T12:42:22;2.10;;;2.00;;
11267;SDS011;49397;47.474;9.416;2023-03-12T12:44:50;1.60;;;1.50;;
11267;SDS011;49397;47.474;9.416;2023-03-12T12:47:30;1.90;;;1.80;;
11267;SDS011;49397;47.474;9.416;2023-03-12T12:49:57;1.77;;;1.77;;
11267;SDS011;49397;47.474;9.416;2023-03-12T12:52:22;4.33;;;2.27;;
11267;SDS011;49397;47.474;9.416;2023-03-12T12:57:22;2.53;;;2.10;;
11267;SDS011;49397;47.474;9.416;2023-03-12T12:59:54;2.67;;;2.10;;
11267;SDS011;49397;47.474;9.416;2023-03-12T13:02:23;2.37;;;1.97;;
11267;SDS011;49397;47.474;9.416;2023-03-12T13:04:50;4.53;;;2.50;;
11267;SDS011;49397;47.474;9.416;2023-03-12T13:14:43;2.37;;;2.20;;
11267;SDS011;49397;47.474;9.416;2023-03-12T13:19:47;5.07;;;2.47;;
11267;SDS011;49397;47.474;9.416;2023-03-12T13:22:20;5.80;;;2.50;;
11267;SDS011;49397;47.474;9.416;2023-03-12T13:27:36;3.23;;;2.20;;
11267;SDS011;49397;47.474;9.416;2023-03-12T13:43:07;2.40;;;2.20;;
11267;SDS011;49397;47.474;9.416;2023-03-12T13:45:39;2.10;;;1.97;;
11267;SDS011;49397;47.474;9.416;2023-03-12T13:48:11;2.20;;;2.03;;
11267;SDS011;49397;47.474;9.416;2023-03-12T13:50:40;2.10;;;2.00;;
11267;SDS011;49397;47.474;9.416;2023-03-12T13:53:06;2.07;;;1.97;;
11267;SDS011;49397;47.474;9.416;2023-03-12T13:55:38;2.83;;;2.20;;
11267;SDS011;49397;47.474;9.416;2023-03-12T13:58:08;3.23;;;1.90;;
11267;SDS011;49397;47.474;9.416;2023-03-12T14:00:43;2.17;;;2.00;;
11267;SDS011;49397;47.474;9.416;2023-03-12T14:03:13;2.67;;;1.97;;
11267;SDS011;49397;47.474;9.416;2023-03-12T14:06:23;3.53;;;2.00;;
11267;SDS011;49397;47.474;9.416;2023-03-12T14:13:38;2.40;;;2.20;;
11267;SDS011;49397;47.474;9.416;2023-03-12T14:18:35;2.10;;;2.00;;
11267;SDS011;49397;47.474;9.416;2023-03-12T14:21:02;2.90;;;2.17;;
11267;SDS011;49397;47.474;9.416;2023-03-12T14:23:33;2.10;;;2.00;;
11267;SDS011;49397;47.474;9.416;2023-03-12T14:26:00;2.87;;;2.67;;
11267;SDS011;49397;47.474;9.416;2023-03-12T14:28:26;3.43;;;1.80;;
11267;SDS011;49397;47.474;9.416;2023-03-12T14:33:17;2.33;;;2.20;;
11267;SDS011;49397;47.474;9.416;2023-03-12T14:35:47;2.10;;;1.70;;
11267;SDS011;49397;47.474;9.416;2023-03-12T14:40:54;1.90;;;1.80;;
11267;SDS011;49397;47.474;9.416;2023-03-12T14:45:48;2.13;;;2.00;;
11267;SDS011;49397;47.474;9.416;2023-03-12T14:48:13;3.10;;;2.30;;
11267;SDS011;49397;47.474;9.416;2023-03-12T14:50:39;2.10;;;2.00;;
11267;SDS011;49397;47.474;9.416;2023-03-12T14:55:36;2.47;;;1.87;;
11267;SDS011;49397;47.474;9.416;2023-03-12T14:58:02;2.40;;;2.20;;
11267;SDS011;49397;47.474;9.416;2023-03-12T15:00:28;2.87;;;2.20;;
11267;SDS011;49397;47.474;9.416;2023-03-12T15:02:54;1.90;;;1.80;;
11267;SDS011;49397;47.474;9.416;2023-03-12T15:05:21;2.20;;;2.00;;
11267;SDS011;49397;47.474;9.416;2023-03-12T15:07:47;6.83;;;2.00;;
11267;SDS011;49397;47.474;9.416;2023-03-12T15:10:23;2.50;;;1.90;;
11267;SDS011;49397;47.474;9.416;2023-03-12T15:12:49;2.63;;;2.00;;
11267;SDS011;49397;47.474;9.416;2023-03-12T15:17:55;3.23;;;1.90;;
11267;SDS011;49397;47.474;9.416;2023-03-12T15:20:21;2.40;;;2.10;;
11267;SDS011;49397;47.474;9.416;2023-03-12T15:22:47;2.27;;;2.07;;
11267;SDS011;49397;47.474;9.416;2023-03-12T15:27:44;2.33;;;1.90;;
11267;SDS011;49397;47.474;9.416;2023-03-12T15:30:22;2.67;;;2.37;;
11267;SDS011;49397;47.474;9.416;2023-03-12T15:35:33;2.73;;;1.80;;
11267;SDS011;49397;47.474;9.416;2023-03-12T15:37:58;2.80;;;2.03;;
11267;SDS011;49397;47.474;9.416;2023-03-12T15:40:25;2.03;;;1.93;;
11267;SDS011;49397;47.474;9.416;2023-03-12T15:42:51;2.20;;;1.73;;
11267;SDS011;49397;47.474;9.416;2023-03-12T15:45:22;3.23;;;1.53;;
11267;SDS011;49397;47.474;9.416;2023-03-12T15:47:48;2.77;;;2.00;;
11267;SDS011;49397;47.474;9.416;2023-03-12T15:50:19;3.50;;;2.10;;
11267;SDS011;49397;47.474;9.416;2023-03-12T15:55:23;2.97;;;2.03;;
11267;SDS011;49397;47.474;9.416;2023-03-12T15:57:52;1.73;;;1.63;;
11267;SDS011;49397;47.474;9.416;2023-03-12T16:02:48;2.67;;;1.97;;
11267;SDS011;49397;47.474;9.416;2023-03-12T16:05:14;3.23;;;1.70;;
11267;SDS011;49397;47.474;9.416;2023-03-12T16:07:40;1.93;;;1.83;;
11267;SDS011;49397;47.474;9.416;2023-03-12T16:10:05;1.70;;;1.60;;
11267;SDS011;49397;47.474;9.416;2023-03-12T16:12:31;3.77;;;2.23;;
11267;SDS011;49397;47.474;9.416;2023-03-12T16:14:57;4.13;;;2.20;;
11267;SDS011;49397;47.474;9.416;2023-03-12T16:17:22;1.83;;;1.73;;
11267;SDS011;49397;47.474;9.416;2023-03-12T16:19:48;2.80;;;1.77;;
11267;SDS011;49397;47.474;9.416;2023-03-12T16:22:13;2.53;;;1.93;;
11267;SDS011;49397;47.474;9.416;2023-03-12T16:24:39;2.03;;;1.90;;
11267;SDS011;49397;47.474;9.416;2023-03-12T16:27:04;2.30;;;2.00;;
11267;SDS011;49397;47.474;9.416;2023-03-12T16:29:35;2.17;;;1.90;;
11267;SDS011;49397;47.474;9.416;2023-03-12T16:32:00;2.17;;;2.00;;
11267;SDS011;49397;47.474;9.416;2023-03-12T16:34:26;3.40;;;2.20;;
11267;SDS011;49397;47.474;9.416;2023-03-12T16:36:51;3.80;;;2.20;;
11267;SDS011;49397;47.474;9.416;2023-03-12T16:39:17;2.50;;;2.03;;
11267;SDS011;49397;47.474;9.416;2023-03-12T16:41:42;2.60;;;2.27;;
11267;SDS011;49397;47.474;9.416;2023-03-12T16:44:08;1.83;;;1.80;;
11267;SDS011;49397;47.474;9.416;2023-03-12T16:46:38;2.10;;;2.00;;
11267;SDS011;49397;47.474;9.416;2023-03-12T16:49:03;3.17;;;2.17;;
11267;SDS011;49397;47.474;9.416;2023-03-12T16:51:28;2.17;;;2.00;;
11267;SDS011;49397;47.474;9.416;2023-03-12T16:53:54;2.30;;;2.20;;
11267;SDS011;49397;47.474;9.416;2023-03-12T16:56:21;2.40;;;2.30;;
11267;SDS011;49397;47.474;9.416;2023-03-12T16:58:48;2.37;;;2.10;;